Pleasant Ridge, Louisiana
Current Conditions -  °F | °C
As of 9:53 AM on Thursday 29 Jan 2015 (Local Time) from KESF Reporting Station
Overcast Overcast  
Wind Chill: 16°   Ceiling: 500
Heat Index: 16°   Visibility: 10mi
Dew Point: 14°   Wind: 10mph
Humidity: 90%   Direction: 240°WSW
Pressure: 30.24"   Gusts: NA
Location:  31.8657°N, 92.2616°W
Report Text: KESF 291553Z AUTO 24009KT 10SM OVC005 16/14 A3024 RMK AO2 CIG 004V008 SLP238 T01560139
Loading
Personal Weather Stations






























Interactive Weather Map New forecast layout! Learn more

10-Day Weather Forecast

Advertisements
Track Severe Weather on mobile